Messwerte Niederuzwil

Temperatur

Temperatur
°C
1548054000 8.00 8.00 -1.7
1548057600 9.00 9.00 -1.4
1548061200 10.00 10.00 -1.4
1548064800 11.00 11.00 -1.3
1548068400 12.00 12.00 -0.8
1548072000 13.00 13.00 -0.7
1548075600 14.00 14.00 -0.5
1548079200 15.00 15.00 -0.2
1548082800 16.00 16.00 -0.3
1548086400 17.00 17.00 -0.4
1548090000 18.00 18.00 -0.6
1548093600 19.00 19.00 -1.2
1548097200 20.00 20.00 -1.8
1548100800 21.00 21.00 -2.1
1548104400 22.00 22.00 -2.2
1548108000 23.00 23.00 -1.9
1548111600 0.00 0.00 -1.9
1548115200 1.00 1.00 -2.1
1548118800 2.00 2.00
1548122400 3.00 3.00
1548126000 4.00 4.00
1548129600 5.00 5.00
1548133200 6.00 6.00
1548136800 7.00 7.00

Wir danken unserem Partner:

Aktuellste Messwerte

Temperatur
-3.2 °C
Feuchtigkeit
84 %
Wind
8 km/hWindrichtung: Südost
Böen
15 km/h
Luftdruck
1015.0 hPa
Globalstrahlung
0 W/m²
Messzeit: 22. Januar 2019, 8.00Datenquelle: MeteoNews Partner, Wetterstation Fürstenland

Weitere Messstationen in der Nähe

Messstation Temperatur Entfernung
Algetshausen -2.9 °C 2 km
Bischofszell -2.1 °C 9 km
Berg TG -1.7 °C 15 km
Amriswil -2.0 °C 16 km
Sommeri -1.8 °C 17 km
Hörnli -7.7 °C 17 km
Tänikon -1.9 °C 18 km

Niederschlag

Niederschlagsmenge
mm
1548054000 8.00 7.00 - 8.00 0.0
1548057600 9.00 8.00 - 9.00 0.0
1548061200 10.00 9.00 - 10.00 0.0
1548064800 11.00 10.00 - 11.00 0.0
1548068400 12.00 11.00 - 12.00
1548072000 13.00 12.00 - 13.00 0.0
1548075600 14.00 13.00 - 14.00 0.0
1548079200 15.00 14.00 - 15.00 0.0
1548082800 16.00 15.00 - 16.00 0.0
1548086400 17.00 16.00 - 17.00 0.0
1548090000 18.00 17.00 - 18.00
1548093600 19.00 18.00 - 19.00
1548097200 20.00 19.00 - 20.00 0.0
1548100800 21.00 20.00 - 21.00 0.0
1548104400 22.00 21.00 - 22.00 0.0
1548108000 23.00 22.00 - 23.00 0.0
1548111600 0.00 23.00 - 0.00 0.0
1548115200 1.00 0.00 - 1.00
1548118800 2.00 1.00 - 2.00
1548122400 3.00 2.00 - 3.00
1548126000 4.00 3.00 - 4.00
1548129600 5.00 4.00 - 5.00
1548133200 6.00 5.00 - 6.00
1548136800 7.00 6.00 - 7.00

Wind

Windrichtung Böen Mittelwind
° km/h km/h
1548054000 8.00 7.00 - 8.00 20° 5 1
1548057600 9.00 8.00 - 9.00 70° 7 1
1548061200 10.00 9.00 - 10.00 90° 10 4
1548064800 11.00 10.00 - 11.00 70° 10 4
1548068400 12.00 11.00 - 12.00 70° 10 3
1548072000 13.00 12.00 - 13.00 70° 10 4
1548075600 14.00 13.00 - 14.00 50° 9 3
1548079200 15.00 14.00 - 15.00 50° 9 2
1548082800 16.00 15.00 - 16.00 70° 9 4
1548086400 17.00 16.00 - 17.00 70° 9 5
1548090000 18.00 17.00 - 18.00 50° 9 5
1548093600 19.00 18.00 - 19.00 110° 5 2
1548097200 20.00 19.00 - 20.00 180° 9 3
1548100800 21.00 20.00 - 21.00 320° 9 2
1548104400 22.00 21.00 - 22.00 290° 9 4
1548108000 23.00 22.00 - 23.00 250° 9 3
1548111600 0.00 23.00 - 0.00 340° 7 1
1548115200 1.00 0.00 - 1.00 340° 7 3
1548118800 2.00 1.00 - 2.00
1548122400 3.00 2.00 - 3.00
1548126000 4.00 3.00 - 4.00
1548129600 5.00 4.00 - 5.00
1548133200 6.00 5.00 - 6.00
1548136800 7.00 6.00 - 7.00

Ihre Wetterstation

Fehlt Ihre Wetterstation auf unserem Portal?

Schreiben Sie an network@meteonews.ch

Klima

Wann ist es am wärmsten? Wann regnet es am wenigsten? Unsere Klimadaten geben Auskunft.